Terminal Aerodrome Forecast
Issued by NWS

Home | Current Version | Previous Version | Text Only | Print | Product List | Glossary On
Versions: 1 2 3 4 5 6 7 8 9 10 11 12 13 14 15 16 17 18 19 20
000
FTUS43 KILX 281816 AAA
TAFBMI
TAF AMD
KBMI 281816Z 2818/2918 19020G28KT P6SM SCT070 BKN200
     FM290200 20018G25KT P6SM SCT080 BKN200
     FM290400 21016G22KT P6SM VCTS SCT040CB BKN100 WS020/23050KT
     FM291000 21014G18KT P6SM SHRA VCTS SCT040CB BKN080
     FM291400 22017G24KT P6SM SCT050 BKN100=

USA.gov is the U.S. government's official web portal to all federal, state and local government web resources and services.